sensor_id;sensor_type;location;lat;lon;timestamp;temperature;humidity
60717;DHT22;46566;52.700;6.192;2022-07-04T00:00:28;15.60;99.90
60717;DHT22;46566;52.700;6.192;2022-07-04T00:02:54;15.60;99.90
60717;DHT22;46566;52.700;6.192;2022-07-04T00:05:20;15.50;99.90
60717;DHT22;46566;52.700;6.192;2022-07-04T00:07:47;15.50;99.90
60717;DHT22;46566;52.700;6.192;2022-07-04T00:10:16;15.40;99.90
60717;DHT22;46566;52.700;6.192;2022-07-04T00:12:42;15.40;99.90
60717;DHT22;46566;52.700;6.192;2022-07-04T00:15:09;15.30;99.90
60717;DHT22;46566;52.700;6.192;2022-07-04T00:17:35;15.40;99.90
60717;DHT22;46566;52.700;6.192;2022-07-04T00:20:03;15.40;99.90
60717;DHT22;46566;52.700;6.192;2022-07-04T00:22:29;15.40;99.90
60717;DHT22;46566;52.700;6.192;2022-07-04T00:24:54;15.40;99.90
60717;DHT22;46566;52.700;6.192;2022-07-04T00:27:20;15.40;99.90
60717;DHT22;46566;52.700;6.192;2022-07-04T00:29:46;15.40;99.90
60717;DHT22;46566;52.700;6.192;2022-07-04T00:32:12;15.40;99.90
60717;DHT22;46566;52.700;6.192;2022-07-04T00:34:38;15.40;99.90
60717;DHT22;46566;52.700;6.192;2022-07-04T00:37:03;15.40;99.90
60717;DHT22;46566;52.700;6.192;2022-07-04T00:39:30;15.40;99.90
60717;DHT22;46566;52.700;6.192;2022-07-04T00:41:55;15.40;99.90
60717;DHT22;46566;52.700;6.192;2022-07-04T00:44:21;15.40;99.90
60717;DHT22;46566;52.700;6.192;2022-07-04T00:46:47;15.40;99.90
60717;DHT22;46566;52.700;6.192;2022-07-04T00:49:15;15.40;99.90
60717;DHT22;46566;52.700;6.192;2022-07-04T00:51:43;15.30;99.90
60717;DHT22;46566;52.700;6.192;2022-07-04T00:54:11;15.30;99.90
60717;DHT22;46566;52.700;6.192;2022-07-04T00:56:39;15.30;99.90
60717;DHT22;46566;52.700;6.192;2022-07-04T00:59:05;15.30;99.90
60717;DHT22;46566;52.700;6.192;2022-07-04T01:01:32;15.40;99.90
60717;DHT22;46566;52.700;6.192;2022-07-04T01:03:58;15.30;99.90
60717;DHT22;46566;52.700;6.192;2022-07-04T01:06:24;15.40;99.90
60717;DHT22;46566;52.700;6.192;2022-07-04T01:08:50;15.30;99.90
60717;DHT22;46566;52.700;6.192;2022-07-04T01:11:16;15.30;99.90
60717;DHT22;46566;52.700;6.192;2022-07-04T01:13:42;15.20;99.90
60717;DHT22;46566;52.700;6.192;2022-07-04T01:16:09;15.20;99.90
60717;DHT22;46566;52.700;6.192;2022-07-04T01:18:36;15.10;99.90
60717;DHT22;46566;52.700;6.192;2022-07-04T01:21:02;15.00;99.90
60717;DHT22;46566;52.700;6.192;2022-07-04T01:23:28;14.90;99.90
60717;DHT22;46566;52.700;6.192;2022-07-04T01:25:54;14.80;99.90
60717;DHT22;46566;52.700;6.192;2022-07-04T01:28:22;14.80;99.90
60717;DHT22;46566;52.700;6.192;2022-07-04T01:30:48;14.70;99.90
60717;DHT22;46566;52.700;6.192;2022-07-04T01:33:14;14.60;99.90
60717;DHT22;46566;52.700;6.192;2022-07-04T01:35:46;14.50;99.90
60717;DHT22;46566;52.700;6.192;2022-07-04T01:38:12;14.50;99.90
60717;DHT22;46566;52.700;6.192;2022-07-04T01:40:38;14.40;99.90
60717;DHT22;46566;52.700;6.192;2022-07-04T01:43:04;14.30;99.90
60717;DHT22;46566;52.700;6.192;2022-07-04T01:45:30;14.30;99.90
60717;DHT22;46566;52.700;6.192;2022-07-04T01:48:00;14.20;99.90
60717;DHT22;46566;52.700;6.192;2022-07-04T01:50:26;14.20;99.90
60717;DHT22;46566;52.700;6.192;2022-07-04T01:52:52;14.10;99.90
60717;DHT22;46566;52.700;6.192;2022-07-04T01:55:18;14.10;99.90
60717;DHT22;46566;52.700;6.192;2022-07-04T01:57:44;14.10;99.90
60717;DHT22;46566;52.700;6.192;2022-07-04T02:00:10;14.10;99.90
60717;DHT22;46566;52.700;6.192;2022-07-04T02:02:56;14.10;99.90
60717;DHT22;46566;52.700;6.192;2022-07-04T02:05:22;14.00;99.90
60717;DHT22;46566;52.700;6.192;2022-07-04T02:07:48;14.00;99.90
60717;DHT22;46566;52.700;6.192;2022-07-04T02:10:14;14.00;99.90
60717;DHT22;46566;52.700;6.192;2022-07-04T02:12:40;14.00;99.90
60717;DHT22;46566;52.700;6.192;2022-07-04T02:15:25;14.00;99.90
60717;DHT22;46566;52.700;6.192;2022-07-04T02:17:51;14.00;99.90
60717;DHT22;46566;52.700;6.192;2022-07-04T02:20:16;14.00;99.90
60717;DHT22;46566;52.700;6.192;2022-07-04T02:22:42;14.00;99.90
60717;DHT22;46566;52.700;6.192;2022-07-04T02:25:08;14.00;99.90
60717;DHT22;46566;52.700;6.192;2022-07-04T02:27:34;13.90;99.90
60717;DHT22;46566;52.700;6.192;2022-07-04T02:30:00;13.90;99.90
60717;DHT22;46566;52.700;6.192;2022-07-04T02:32:26;13.90;99.90
60717;DHT22;46566;52.700;6.192;2022-07-04T02:34:51;14.00;99.90
60717;DHT22;46566;52.700;6.192;2022-07-04T02:37:17;14.00;99.90
60717;DHT22;46566;52.700;6.192;2022-07-04T02:39:43;14.00;99.90
60717;DHT22;46566;52.700;6.192;2022-07-04T02:42:09;14.00;99.90
60717;DHT22;46566;52.700;6.192;2022-07-04T02:44:34;13.90;99.90
60717;DHT22;46566;52.700;6.192;2022-07-04T02:47:00;13.90;99.90
60717;DHT22;46566;52.700;6.192;2022-07-04T02:49:27;13.90;99.90
60717;DHT22;46566;52.700;6.192;2022-07-04T02:51:53;13.90;99.90
60717;DHT22;46566;52.700;6.192;2022-07-04T02:54:18;13.90;99.90
60717;DHT22;46566;52.700;6.192;2022-07-04T02:56:44;13.80;99.90
60717;DHT22;46566;52.700;6.192;2022-07-04T02:59:10;13.80;99.90
60717;DHT22;46566;52.700;6.192;2022-07-04T03:01:36;13.80;99.90
60717;DHT22;46566;52.700;6.192;2022-07-04T03:04:02;13.70;99.90
60717;DHT22;46566;52.700;6.192;2022-07-04T03:06:29;13.70;99.90
60717;DHT22;46566;52.700;6.192;2022-07-04T03:08:55;13.70;99.90
60717;DHT22;46566;52.700;6.192;2022-07-04T03:11:21;13.70;99.90
60717;DHT22;46566;52.700;6.192;2022-07-04T03:13:47;13.70;99.90
60717;DHT22;46566;52.700;6.192;2022-07-04T03:16:13;13.70;99.90
60717;DHT22;46566;52.700;6.192;2022-07-04T03:18:39;13.70;99.90
60717;DHT22;46566;52.700;6.192;2022-07-04T03:21:05;13.80;99.90
60717;DHT22;46566;52.700;6.192;2022-07-04T03:23:32;13.70;99.90
60717;DHT22;46566;52.700;6.192;2022-07-04T03:25:59;13.70;99.90
60717;DHT22;46566;52.700;6.192;2022-07-04T03:28:24;13.70;99.90
60717;DHT22;46566;52.700;6.192;2022-07-04T03:30:50;13.70;99.90
60717;DHT22;46566;52.700;6.192;2022-07-04T03:33:16;13.60;99.90
60717;DHT22;46566;52.700;6.192;2022-07-04T03:35:42;13.60;99.90
60717;DHT22;46566;52.700;6.192;2022-07-04T03:38:08;13.60;99.90
60717;DHT22;46566;52.700;6.192;2022-07-04T03:40:34;13.60;99.90
60717;DHT22;46566;52.700;6.192;2022-07-04T03:43:02;13.60;99.90
60717;DHT22;46566;52.700;6.192;2022-07-04T03:45:29;13.60;99.90
60717;DHT22;46566;52.700;6.192;2022-07-04T03:47:55;13.60;99.90
60717;DHT22;46566;52.700;6.192;2022-07-04T03:50:22;13.60;99.90
60717;DHT22;46566;52.700;6.192;2022-07-04T03:52:48;13.60;99.90
60717;DHT22;46566;52.700;6.192;2022-07-04T03:55:14;13.60;99.90
60717;DHT22;46566;52.700;6.192;2022-07-04T03:57:40;13.60;99.90
60717;DHT22;46566;52.700;6.192;2022-07-04T04:00:06;13.60;99.90
60717;DHT22;46566;52.700;6.192;2022-07-04T04:02:37;13.60;99.90
60717;DHT22;46566;52.700;6.192;2022-07-04T04:05:04;13.60;99.90
60717;DHT22;46566;52.700;6.192;2022-07-04T04:07:48;13.60;99.90
60717;DHT22;46566;52.700;6.192;2022-07-04T04:10:14;13.60;99.90
60717;DHT22;46566;52.700;6.192;2022-07-04T04:12:40;13.60;99.90
60717;DHT22;46566;52.700;6.192;2022-07-04T04:15:06;13.60;99.90
60717;DHT22;46566;52.700;6.192;2022-07-04T04:17:32;13.60;99.90
60717;DHT22;46566;52.700;6.192;2022-07-04T04:19:57;13.60;99.90
60717;DHT22;46566;52.700;6.192;2022-07-04T04:22:23;13.60;99.90
60717;DHT22;46566;52.700;6.192;2022-07-04T04:24:49;13.60;99.90
60717;DHT22;46566;52.700;6.192;2022-07-04T04:27:15;13.60;99.90
60717;DHT22;46566;52.700;6.192;2022-07-04T04:29:40;13.70;99.90
60717;DHT22;46566;52.700;6.192;2022-07-04T04:32:06;13.70;99.90
60717;DHT22;46566;52.700;6.192;2022-07-04T04:34:32;13.70;99.90
60717;DHT22;46566;52.700;6.192;2022-07-04T04:36:59;13.80;99.90
60717;DHT22;46566;52.700;6.192;2022-07-04T04:39:25;13.80;99.90
60717;DHT22;46566;52.700;6.192;2022-07-04T04:41:51;13.80;99.90
60717;DHT22;46566;52.700;6.192;2022-07-04T04:44:17;13.80;99.90
60717;DHT22;46566;52.700;6.192;2022-07-04T04:46:45;13.90;99.90
60717;DHT22;46566;52.700;6.192;2022-07-04T04:49:11;13.90;99.90
60717;DHT22;46566;52.700;6.192;2022-07-04T04:51:37;13.90;99.90
60717;DHT22;46566;52.700;6.192;2022-07-04T04:54:04;14.00;99.90
60717;DHT22;46566;52.700;6.192;2022-07-04T04:56:30;14.00;99.90
60717;DHT22;46566;52.700;6.192;2022-07-04T04:58:56;14.00;99.90
60717;DHT22;46566;52.700;6.192;2022-07-04T05:01:21;14.00;99.90
60717;DHT22;46566;52.700;6.192;2022-07-04T05:03:47;14.10;99.90
60717;DHT22;46566;52.700;6.192;2022-07-04T05:06:13;14.10;99.90
60717;DHT22;46566;52.700;6.192;2022-07-04T05:08:39;14.10;99.90
60717;DHT22;46566;52.700;6.192;2022-07-04T05:11:05;14.20;99.90
60717;DHT22;46566;52.700;6.192;2022-07-04T05:13:31;14.20;99.90
60717;DHT22;46566;52.700;6.192;2022-07-04T05:15:57;14.20;99.90
60717;DHT22;46566;52.700;6.192;2022-07-04T05:18:23;14.20;99.90
60717;DHT22;46566;52.700;6.192;2022-07-04T05:20:49;14.30;99.90
60717;DHT22;46566;52.700;6.192;2022-07-04T05:23:15;14.30;99.90
60717;DHT22;46566;52.700;6.192;2022-07-04T05:25:40;14.30;99.90
60717;DHT22;46566;52.700;6.192;2022-07-04T05:28:06;14.30;99.90
60717;DHT22;46566;52.700;6.192;2022-07-04T05:30:32;14.40;99.90
60717;DHT22;46566;52.700;6.192;2022-07-04T05:32:58;14.40;99.90
60717;DHT22;46566;52.700;6.192;2022-07-04T05:35:26;14.40;99.90
60717;DHT22;46566;52.700;6.192;2022-07-04T05:37:53;14.40;99.90
60717;DHT22;46566;52.700;6.192;2022-07-04T05:40:19;14.50;99.90
60717;DHT22;46566;52.700;6.192;2022-07-04T05:42:47;14.50;99.90
60717;DHT22;46566;52.700;6.192;2022-07-04T05:45:14;14.60;99.90
60717;DHT22;46566;52.700;6.192;2022-07-04T05:47:40;14.60;99.90
60717;DHT22;46566;52.700;6.192;2022-07-04T05:50:06;14.70;99.90
60717;DHT22;46566;52.700;6.192;2022-07-04T05:52:32;14.70;99.90
60717;DHT22;46566;52.700;6.192;2022-07-04T05:54:57;14.80;99.90
60717;DHT22;46566;52.700;6.192;2022-07-04T05:57:23;14.80;99.90
60717;DHT22;46566;52.700;6.192;2022-07-04T05:59:49;14.90;99.90
60717;DHT22;46566;52.700;6.192;2022-07-04T06:02:15;15.00;99.90
60717;DHT22;46566;52.700;6.192;2022-07-04T06:04:41;15.20;99.90
60717;DHT22;46566;52.700;6.192;2022-07-04T06:07:09;15.30;99.90
60717;DHT22;46566;52.700;6.192;2022-07-04T06:09:35;15.50;99.90
60717;DHT22;46566;52.700;6.192;2022-07-04T06:12:02;15.60;99.90
60717;DHT22;46566;52.700;6.192;2022-07-04T06:14:28;15.70;99.90
60717;DHT22;46566;52.700;6.192;2022-07-04T06:16:53;15.70;99.90
60717;DHT22;46566;52.700;6.192;2022-07-04T06:19:19;15.70;99.90
60717;DHT22;46566;52.700;6.192;2022-07-04T06:21:45;15.80;99.90
60717;DHT22;46566;52.700;6.192;2022-07-04T06:24:11;15.80;99.90
60717;DHT22;46566;52.700;6.192;2022-07-04T06:26:37;15.80;99.90
60717;DHT22;46566;52.700;6.192;2022-07-04T06:29:03;15.90;99.90
60717;DHT22;46566;52.700;6.192;2022-07-04T06:31:29;15.90;99.90
60717;DHT22;46566;52.700;6.192;2022-07-04T06:33:55;16.00;99.90
60717;DHT22;46566;52.700;6.192;2022-07-04T06:36:39;16.00;99.90
60717;DHT22;46566;52.700;6.192;2022-07-04T06:39:05;16.00;99.90
60717;DHT22;46566;52.700;6.192;2022-07-04T06:41:31;16.10;99.90
60717;DHT22;46566;52.700;6.192;2022-07-04T06:43:57;16.10;99.90
60717;DHT22;46566;52.700;6.192;2022-07-04T06:46:23;16.20;99.90
60717;DHT22;46566;52.700;6.192;2022-07-04T06:48:48;16.20;99.90
60717;DHT22;46566;52.700;6.192;2022-07-04T06:51:14;16.20;99.90
60717;DHT22;46566;52.700;6.192;2022-07-04T06:53:41;16.30;99.90
60717;DHT22;46566;52.700;6.192;2022-07-04T06:56:07;16.40;99.90
60717;DHT22;46566;52.700;6.192;2022-07-04T06:58:32;16.40;99.90
60717;DHT22;46566;52.700;6.192;2022-07-04T07:00:58;16.40;99.90
60717;DHT22;46566;52.700;6.192;2022-07-04T07:03:24;16.50;99.90
60717;DHT22;46566;52.700;6.192;2022-07-04T07:05:50;16.60;99.90
60717;DHT22;46566;52.700;6.192;2022-07-04T07:08:16;16.70;99.90
60717;DHT22;46566;52.700;6.192;2022-07-04T07:10:41;16.80;99.90
60717;DHT22;46566;52.700;6.192;2022-07-04T07:13:07;16.90;99.90
60717;DHT22;46566;52.700;6.192;2022-07-04T07:15:34;16.90;99.90
60717;DHT22;46566;52.700;6.192;2022-07-04T07:18:02;17.00;99.90
60717;DHT22;46566;52.700;6.192;2022-07-04T07:20:28;17.00;99.90
60717;DHT22;46566;52.700;6.192;2022-07-04T07:22:53;17.10;99.90
60717;DHT22;46566;52.700;6.192;2022-07-04T07:25:19;17.10;99.90
60717;DHT22;46566;52.700;6.192;2022-07-04T07:27:45;17.30;99.90
60717;DHT22;46566;52.700;6.192;2022-07-04T07:30:11;17.40;99.90
60717;DHT22;46566;52.700;6.192;2022-07-04T07:32:37;17.60;99.90
60717;DHT22;46566;52.700;6.192;2022-07-04T07:35:03;17.70;99.90
60717;DHT22;46566;52.700;6.192;2022-07-04T07:37:29;17.80;99.90
60717;DHT22;46566;52.700;6.192;2022-07-04T07:39:55;17.90;99.90
60717;DHT22;46566;52.700;6.192;2022-07-04T07:42:23;17.90;99.90
60717;DHT22;46566;52.700;6.192;2022-07-04T07:44:49;18.00;99.90
60717;DHT22;46566;52.700;6.192;2022-07-04T07:47:14;18.10;99.90
60717;DHT22;46566;52.700;6.192;2022-07-04T07:49:44;18.20;99.90
60717;DHT22;46566;52.700;6.192;2022-07-04T07:52:10;18.20;99.90
60717;DHT22;46566;52.700;6.192;2022-07-04T07:54:36;18.30;99.90
60717;DHT22;46566;52.700;6.192;2022-07-04T07:57:02;18.30;99.90
60717;DHT22;46566;52.700;6.192;2022-07-04T07:59:28;18.30;99.90
60717;DHT22;46566;52.700;6.192;2022-07-04T08:01:54;18.40;99.90
60717;DHT22;46566;52.700;6.192;2022-07-04T08:04:20;18.50;99.90
60717;DHT22;46566;52.700;6.192;2022-07-04T08:07:03;18.70;99.90
60717;DHT22;46566;52.700;6.192;2022-07-04T08:09:29;18.80;99.90
60717;DHT22;46566;52.700;6.192;2022-07-04T08:11:55;18.80;99.90
60717;DHT22;46566;52.700;6.192;2022-07-04T08:14:21;18.80;99.90
60717;DHT22;46566;52.700;6.192;2022-07-04T08:16:46;18.90;99.90
60717;DHT22;46566;52.700;6.192;2022-07-04T08:19:12;19.00;99.90
60717;DHT22;46566;52.700;6.192;2022-07-04T08:21:38;19.10;99.90
60717;DHT22;46566;52.700;6.192;2022-07-04T08:24:04;19.10;99.90
60717;DHT22;46566;52.700;6.192;2022-07-04T08:26:30;19.20;99.90
60717;DHT22;46566;52.700;6.192;2022-07-04T08:28:56;19.40;99.90
60717;DHT22;46566;52.700;6.192;2022-07-04T08:31:26;19.60;99.90
60717;DHT22;46566;52.700;6.192;2022-07-04T08:33:53;19.80;99.90
60717;DHT22;46566;52.700;6.192;2022-07-04T08:36:19;20.00;99.90
60717;DHT22;46566;52.700;6.192;2022-07-04T08:38:45;20.10;99.90
60717;DHT22;46566;52.700;6.192;2022-07-04T08:41:12;20.40;99.90
60717;DHT22;46566;52.700;6.192;2022-07-04T08:43:41;21.20;99.90
60717;DHT22;46566;52.700;6.192;2022-07-04T08:46:09;21.90;99.90
60717;DHT22;46566;52.700;6.192;2022-07-04T08:48:38;22.60;99.90
60717;DHT22;46566;52.700;6.192;2022-07-04T08:51:14;23.10;99.90
60717;DHT22;46566;52.700;6.192;2022-07-04T08:53:46;23.00;99.90
60717;DHT22;46566;52.700;6.192;2022-07-04T08:56:14;23.20;99.90
60717;DHT22;46566;52.700;6.192;2022-07-04T08:58:59;22.80;99.90
60717;DHT22;46566;52.700;6.192;2022-07-04T09:01:27;22.20;99.90
60717;DHT22;46566;52.700;6.192;2022-07-04T09:03:53;21.70;99.90
60717;DHT22;46566;52.700;6.192;2022-07-04T09:06:20;21.60;99.90
60717;DHT22;46566;52.700;6.192;2022-07-04T09:08:45;22.30;99.90
60717;DHT22;46566;52.700;6.192;2022-07-04T09:11:11;23.00;99.90
60717;DHT22;46566;52.700;6.192;2022-07-04T09:13:38;23.50;90.40
60717;DHT22;46566;52.700;6.192;2022-07-04T09:16:04;24.10;87.60
60717;DHT22;46566;52.700;6.192;2022-07-04T09:18:35;24.80;72.90
60717;DHT22;46566;52.700;6.192;2022-07-04T09:21:08;25.40;70.80
60717;DHT22;46566;52.700;6.192;2022-07-04T09:23:36;25.70;67.90
60717;DHT22;46566;52.700;6.192;2022-07-04T09:26:11;25.30;65.00
60717;DHT22;46566;52.700;6.192;2022-07-04T09:28:56;25.60;63.20
60717;DHT22;46566;52.700;6.192;2022-07-04T09:31:27;25.80;61.80
60717;DHT22;46566;52.700;6.192;2022-07-04T09:36:26;25.20;61.70
60717;DHT22;46566;52.700;6.192;2022-07-04T09:39:15;24.90;63.40
60717;DHT22;46566;52.700;6.192;2022-07-04T09:42:03;24.90;62.90
60717;DHT22;46566;52.700;6.192;2022-07-04T09:44:47;24.90;63.10
60717;DHT22;46566;52.700;6.192;2022-07-04T09:47:25;24.50;64.20
60717;DHT22;46566;52.700;6.192;2022-07-04T09:50:09;24.20;62.80
60717;DHT22;46566;52.700;6.192;2022-07-04T09:52:56;24.10;59.70
60717;DHT22;46566;52.700;6.192;2022-07-04T09:55:33;24.50;62.10
60717;DHT22;46566;52.700;6.192;2022-07-04T09:58:04;24.90;60.40
60717;DHT22;46566;52.700;6.192;2022-07-04T10:00:32;25.00;61.30
60717;DHT22;46566;52.700;6.192;2022-07-04T10:03:23;24.80;62.10
60717;DHT22;46566;52.700;6.192;2022-07-04T10:06:11;25.00;61.40
60717;DHT22;46566;52.700;6.192;2022-07-04T10:08:39;25.10;61.60
60717;DHT22;46566;52.700;6.192;2022-07-04T10:11:06;24.90;58.90
60717;DHT22;46566;52.700;6.192;2022-07-04T10:13:32;24.80;62.50
60717;DHT22;46566;52.700;6.192;2022-07-04T10:15:58;24.70;60.30
60717;DHT22;46566;52.700;6.192;2022-07-04T10:18:24;24.60;57.00
60717;DHT22;46566;52.700;6.192;2022-07-04T10:20:52;24.60;57.30
60717;DHT22;46566;52.700;6.192;2022-07-04T10:23:20;24.60;60.10
60717;DHT22;46566;52.700;6.192;2022-07-04T10:25:47;24.60;60.60
60717;DHT22;46566;52.700;6.192;2022-07-04T10:28:14;24.70;58.70
60717;DHT22;46566;52.700;6.192;2022-07-04T10:30:40;24.80;58.10
60717;DHT22;46566;52.700;6.192;2022-07-04T10:33:09;24.90;58.30
60717;DHT22;46566;52.700;6.192;2022-07-04T10:35:55;25.00;58.40
60717;DHT22;46566;52.700;6.192;2022-07-04T10:38:25;25.10;58.40
60717;DHT22;46566;52.700;6.192;2022-07-04T10:40:58;25.10;60.20
60717;DHT22;46566;52.700;6.192;2022-07-04T10:45:54;25.40;62.20
60717;DHT22;46566;52.700;6.192;2022-07-04T10:48:22;25.50;56.40
60717;DHT22;46566;52.700;6.192;2022-07-04T10:51:04;25.60;56.50
60717;DHT22;46566;52.700;6.192;2022-07-04T10:53:32;25.60;54.00
60717;DHT22;46566;52.700;6.192;2022-07-04T10:58:44;25.60;55.90
60717;DHT22;46566;52.700;6.192;2022-07-04T11:01:16;25.70;54.60
60717;DHT22;46566;52.700;6.192;2022-07-04T11:03:50;25.70;55.10
60717;DHT22;46566;52.700;6.192;2022-07-04T11:09:24;25.40;55.00
60717;DHT22;46566;52.700;6.192;2022-07-04T11:11:55;25.40;55.20
60717;DHT22;46566;52.700;6.192;2022-07-04T11:14:44;25.40;53.70
60717;DHT22;46566;52.700;6.192;2022-07-04T11:20:00;25.40;56.10
60717;DHT22;46566;52.700;6.192;2022-07-04T11:22:26;25.30;55.80
60717;DHT22;46566;52.700;6.192;2022-07-04T11:27:47;25.30;55.30
60717;DHT22;46566;52.700;6.192;2022-07-04T11:30:13;25.40;54.80
60717;DHT22;46566;52.700;6.192;2022-07-04T11:32:39;25.60;57.20
60717;DHT22;46566;52.700;6.192;2022-07-04T11:35:06;25.60;55.60
60717;DHT22;46566;52.700;6.192;2022-07-04T11:40:13;25.80;56.00
60717;DHT22;46566;52.700;6.192;2022-07-04T11:45:53;25.80;54.90
60717;DHT22;46566;52.700;6.192;2022-07-04T11:48:26;25.70;53.70
60717;DHT22;46566;52.700;6.192;2022-07-04T11:50:53;25.70;54.50
60717;DHT22;46566;52.700;6.192;2022-07-04T11:56:01;25.80;55.60
60717;DHT22;46566;52.700;6.192;2022-07-04T11:58:43;25.80;55.30
60717;DHT22;46566;52.700;6.192;2022-07-04T12:04:19;25.80;52.70
60717;DHT22;46566;52.700;6.192;2022-07-04T12:09:48;25.90;54.10
60717;DHT22;46566;52.700;6.192;2022-07-04T12:12:15;26.00;53.00
60717;DHT22;46566;52.700;6.192;2022-07-04T12:15:07;25.90;52.70
60717;DHT22;46566;52.700;6.192;2022-07-04T12:17:35;26.00;52.90
60717;DHT22;46566;52.700;6.192;2022-07-04T12:23:12;25.80;51.10
60717;DHT22;46566;52.700;6.192;2022-07-04T12:25:38;25.70;50.70
60717;DHT22;46566;52.700;6.192;2022-07-04T12:28:23;25.70;50.10
60717;DHT22;46566;52.700;6.192;2022-07-04T12:30:58;25.60;50.20
60717;DHT22;46566;52.700;6.192;2022-07-04T12:36:31;25.70;49.70
60717;DHT22;46566;52.700;6.192;2022-07-04T12:38:56;25.80;50.20
60717;DHT22;46566;52.700;6.192;2022-07-04T12:41:29;25.80;49.10
60717;DHT22;46566;52.700;6.192;2022-07-04T12:46:56;25.90;49.40
60717;DHT22;46566;52.700;6.192;2022-07-04T12:49:22;25.90;48.30
60717;DHT22;46566;52.700;6.192;2022-07-04T12:54:37;25.80;49.00
60717;DHT22;46566;52.700;6.192;2022-07-04T12:57:11;25.80;49.30
60717;DHT22;46566;52.700;6.192;2022-07-04T13:02:34;25.80;48.30
60717;DHT22;46566;52.700;6.192;2022-07-04T13:05:00;25.90;49.00
60717;DHT22;46566;52.700;6.192;2022-07-04T13:07:26;25.90;48.00
60717;DHT22;46566;52.700;6.192;2022-07-04T13:12:54;25.70;49.10
60717;DHT22;46566;52.700;6.192;2022-07-04T13:15:19;25.80;49.40
60717;DHT22;46566;52.700;6.192;2022-07-04T13:20:48;25.90;48.40
60717;DHT22;46566;52.700;6.192;2022-07-04T13:23:13;25.80;47.40
60717;DHT22;46566;52.700;6.192;2022-07-04T13:28:32;25.80;49.00
60717;DHT22;46566;52.700;6.192;2022-07-04T13:30:58;25.90;46.50
60717;DHT22;46566;52.700;6.192;2022-07-04T13:33:23;25.90;48.00
60717;DHT22;46566;52.700;6.192;2022-07-04T13:35:58;25.80;46.70
60717;DHT22;46566;52.700;6.192;2022-07-04T13:38:49;25.90;48.60
60717;DHT22;46566;52.700;6.192;2022-07-04T13:41:15;26.00;49.10
60717;DHT22;46566;52.700;6.192;2022-07-04T13:44:07;26.10;46.50
60717;DHT22;46566;52.700;6.192;2022-07-04T13:46:34;25.90;46.30
60717;DHT22;46566;52.700;6.192;2022-07-04T13:49:05;25.90;46.90
60717;DHT22;46566;52.700;6.192;2022-07-04T13:51:57;25.90;45.40
60717;DHT22;46566;52.700;6.192;2022-07-04T13:54:22;25.80;46.40
60717;DHT22;46566;52.700;6.192;2022-07-04T13:56:48;25.80;48.40
60717;DHT22;46566;52.700;6.192;2022-07-04T13:59:14;25.90;47.80
60717;DHT22;46566;52.700;6.192;2022-07-04T14:04:51;25.90;45.30
60717;DHT22;46566;52.700;6.192;2022-07-04T14:07:41;25.90;46.60
60717;DHT22;46566;52.700;6.192;2022-07-04T14:10:07;26.00;45.90
60717;DHT22;46566;52.700;6.192;2022-07-04T14:12:33;26.10;46.80
60717;DHT22;46566;52.700;6.192;2022-07-04T14:14:59;26.10;45.70
60717;DHT22;46566;52.700;6.192;2022-07-04T14:17:50;26.20;45.80
60717;DHT22;46566;52.700;6.192;2022-07-04T14:20:16;26.10;45.30
60717;DHT22;46566;52.700;6.192;2022-07-04T14:22:44;26.00;45.40
60717;DHT22;46566;52.700;6.192;2022-07-04T14:25:10;26.00;46.50
60717;DHT22;46566;52.700;6.192;2022-07-04T14:30:23;25.90;46.10
60717;DHT22;46566;52.700;6.192;2022-07-04T14:32:49;26.00;47.40
60717;DHT22;46566;52.700;6.192;2022-07-04T14:35:17;25.90;47.10
60717;DHT22;46566;52.700;6.192;2022-07-04T14:40:27;25.90;46.60
60717;DHT22;46566;52.700;6.192;2022-07-04T14:42:53;25.80;46.20
60717;DHT22;46566;52.700;6.192;2022-07-04T14:45:19;25.80;47.10
60717;DHT22;46566;52.700;6.192;2022-07-04T14:47:44;25.70;46.90
60717;DHT22;46566;52.700;6.192;2022-07-04T14:50:36;25.60;48.20
60717;DHT22;46566;52.700;6.192;2022-07-04T14:53:02;25.60;47.50
60717;DHT22;46566;52.700;6.192;2022-07-04T14:55:28;25.60;49.40
60717;DHT22;46566;52.700;6.192;2022-07-04T14:57:53;25.60;48.80
60717;DHT22;46566;52.700;6.192;2022-07-04T15:06:29;25.70;47.00
60717;DHT22;46566;52.700;6.192;2022-07-04T15:08:55;25.70;46.50
60717;DHT22;46566;52.700;6.192;2022-07-04T15:11:22;25.70;47.40
60717;DHT22;46566;52.700;6.192;2022-07-04T15:14:13;25.70;47.30
60717;DHT22;46566;52.700;6.192;2022-07-04T15:16:40;25.70;47.50
60717;DHT22;46566;52.700;6.192;2022-07-04T15:19:05;25.70;47.40
60717;DHT22;46566;52.700;6.192;2022-07-04T15:21:32;25.70;48.00
60717;DHT22;46566;52.700;6.192;2022-07-04T15:24:29;25.70;48.50
60717;DHT22;46566;52.700;6.192;2022-07-04T15:26:55;25.80;48.90
60717;DHT22;46566;52.700;6.192;2022-07-04T15:29:23;25.80;47.80
60717;DHT22;46566;52.700;6.192;2022-07-04T15:32:16;25.70;46.60
60717;DHT22;46566;52.700;6.192;2022-07-04T15:34:42;25.60;47.60
60717;DHT22;46566;52.700;6.192;2022-07-04T15:37:07;25.60;48.70
60717;DHT22;46566;52.700;6.192;2022-07-04T15:39:33;25.60;48.30
60717;DHT22;46566;52.700;6.192;2022-07-04T15:45:03;25.40;48.30
60717;DHT22;46566;52.700;6.192;2022-07-04T15:47:55;25.40;49.50
60717;DHT22;46566;52.700;6.192;2022-07-04T15:50:20;25.30;48.70
60717;DHT22;46566;52.700;6.192;2022-07-04T15:52:47;25.20;49.70
60717;DHT22;46566;52.700;6.192;2022-07-04T15:55:13;25.00;49.80
60717;DHT22;46566;52.700;6.192;2022-07-04T16:00:41;24.80;48.40
60717;DHT22;46566;52.700;6.192;2022-07-04T16:03:07;24.70;48.90
60717;DHT22;46566;52.700;6.192;2022-07-04T16:08:28;24.30;50.20
60717;DHT22;46566;52.700;6.192;2022-07-04T16:10:53;24.20;50.00
60717;DHT22;46566;52.700;6.192;2022-07-04T16:13:19;24.10;49.50
60717;DHT22;46566;52.700;6.192;2022-07-04T16:16:10;23.90;51.00
60717;DHT22;46566;52.700;6.192;2022-07-04T16:18:36;23.90;51.20
60717;DHT22;46566;52.700;6.192;2022-07-04T16:21:01;23.90;50.70
60717;DHT22;46566;52.700;6.192;2022-07-04T16:23:27;23.90;51.10
60717;DHT22;46566;52.700;6.192;2022-07-04T16:26:18;23.90;50.00
60717;DHT22;46566;52.700;6.192;2022-07-04T16:28:44;23.80;51.30
60717;DHT22;46566;52.700;6.192;2022-07-04T16:31:09;23.70;51.30
60717;DHT22;46566;52.700;6.192;2022-07-04T16:33:35;23.70;51.50
60717;DHT22;46566;52.700;6.192;2022-07-04T16:36:26;23.60;51.80
60717;DHT22;46566;52.700;6.192;2022-07-04T16:41:51;23.60;51.80
60717;DHT22;46566;52.700;6.192;2022-07-04T16:44:42;23.70;52.20
60717;DHT22;46566;52.700;6.192;2022-07-04T16:47:08;23.70;53.00
60717;DHT22;46566;52.700;6.192;2022-07-04T16:52:45;23.60;53.70
60717;DHT22;46566;52.700;6.192;2022-07-04T16:55:36;23.60;53.60
60717;DHT22;46566;52.700;6.192;2022-07-04T16:58:02;23.50;54.00
60717;DHT22;46566;52.700;6.192;2022-07-04T17:00:28;23.40;54.00
60717;DHT22;46566;52.700;6.192;2022-07-04T17:02:53;23.40;53.90